Time;durP1;ratioP1;P1;durP2;ratioP2;P2;SDS_P1;SDS_P2;PMS_P1;PMS_P2;Temp;Humidity;BMP_temperature;BMP_pressure;BME280_temperature;BME280_humidity;BME280_pressure;Samples;Min_cycle;Max_cycle;Signal;HPM_P1;HPM_P2
2023/06/27 00:02:20;;;;;;;1.45;0.90;;;18.40;90.60;;;18.78;82.72;101399.47;5213909;28;20044;-49
2023/06/27 00:04:56;;;;;;;1.63;0.90;;;18.40;90.80;;;18.75;83.32;101403.00;5212705;28;20110;-50
2023/06/27 00:07:28;;;;;;;2.15;0.85;;;18.30;91.10;;;18.72;83.72;101404.72;5216563;28;20593;-48
2023/06/27 00:10:01;;;;;;;1.70;0.98;;;18.30;91.30;;;18.68;84.08;101411.72;5206261;28;20513;-49
2023/06/27 00:12:33;;;;;;;1.17;0.90;;;18.30;91.50;;;18.63;84.68;101403.69;5219247;28;20099;-49
2023/06/27 00:15:08;;;;;;;0.85;0.73;;;18.20;91.70;;;18.61;85.09;101407.19;5206825;28;20048;-49
2023/06/27 00:17:41;;;;;;;2.95;1.00;;;18.20;92.00;;;18.59;85.62;101412.47;5207133;28;20049;-49
2023/06/27 00:20:14;;;;;;;1.65;0.82;;;18.20;92.30;;;18.57;85.55;101406.25;5217222;28;20535;-49
2023/06/27 00:22:47;;;;;;;1.90;1.00;;;18.10;92.40;;;18.54;85.86;101405.34;5209796;28;20095;-49
2023/06/27 00:25:20;;;;;;;1.33;0.75;;;18.10;92.50;;;18.50;86.29;101407.06;5208160;28;20056;-49
2023/06/27 00:27:53;;;;;;;1.23;1.00;;;18.10;92.80;;;18.47;86.96;101407.03;5200763;28;20052;-49
2023/06/27 00:30:27;;;;;;;1.40;0.77;;;18.10;93.10;;;18.43;87.26;101405.22;5210873;28;20041;-48
2023/06/27 00:33:00;;;;;;;2.13;1.02;;;18.00;93.30;;;18.40;87.83;101415.75;5209133;28;20060;-49
2023/06/27 00:35:32;;;;;;;1.58;1.08;;;18.00;93.60;;;18.34;88.09;101405.13;5214625;28;20041;-49
2023/06/27 00:38:05;;;;;;;2.40;1.00;;;18.00;93.80;;;18.30;88.42;101413.84;5208581;28;20100;-49
2023/06/27 00:40:37;;;;;;;1.80;0.95;;;17.90;94.00;;;18.25;88.37;101399.69;5195480;28;20069;-49
2023/06/27 00:43:10;;;;;;;2.20;0.93;;;17.90;94.10;;;18.24;89.01;101404.09;5214183;28;20049;-49
2023/06/27 00:45:44;;;;;;;2.00;0.93;;;17.80;94.40;;;18.22;89.20;101412.88;5196077;28;20041;-49
2023/06/27 00:48:17;;;;;;;1.63;0.95;;;17.80;94.60;;;18.20;89.30;101406.69;5198251;28;20052;-48
2023/06/27 00:50:52;;;;;;;1.45;0.90;;;17.80;94.80;;;18.17;89.12;101408.41;5201005;28;20037;-49
2023/06/27 00:53:24;;;;;;;;;;;17.80;94.80;;;18.14;89.45;101403.09;5216837;28;20057;-49
2023/06/27 00:55:57;;;;;;;1.45;0.90;;;17.80;95.10;;;18.11;89.75;101405.69;5213898;28;20402;-49
2023/06/27 00:58:30;;;;;;;1.20;0.93;;;17.70;95.20;;;18.09;90.16;101404.78;5213169;28;20421;-49
2023/06/27 01:01:04;;;;;;;2.45;1.00;;;17.70;95.50;;;18.08;90.54;101405.66;5218677;28;20052;-49
2023/06/27 01:03:36;;;;;;;2.15;1.35;;;17.70;95.70;;;18.08;91.00;101410.94;5208394;28;20099;-49
2023/06/27 01:06:16;;;;;;;2.63;1.00;;;17.70;96.00;;;18.09;91.28;101410.06;5202351;28;20513;-49
2023/06/27 01:08:57;;;;;;;1.75;1.00;;;17.70;96.20;;;18.10;91.25;101405.66;5200220;28;20079;-49
2023/06/27 01:11:41;;;;;;;1.02;0.80;;;17.70;96.30;;;18.08;91.39;101416.22;5210213;28;20076;-49
2023/06/27 01:14:15;;;;;;;2.58;0.82;;;17.70;96.50;;;18.06;91.57;101414.41;5217472;28;20106;-48
2023/06/27 01:16:50;;;;;;;2.20;0.93;;;17.70;96.70;;;18.04;91.61;101411.75;5199508;28;20515;-49
2023/06/27 01:19:26;;;;;;;1.45;0.93;;;17.60;96.80;;;18.04;91.74;101406.47;5205738;28;20053;-49
2023/06/27 01:22:04;;;;;;;1.73;1.02;;;17.60;96.90;;;18.04;91.96;101411.75;5193053;28;20046;-49
2023/06/27 01:24:39;;;;;;;2.63;1.10;;;17.60;97.10;;;18.07;92.17;101416.19;5211730;28;20045;-49
2023/06/27 01:27:12;;;;;;;1.10;0.88;;;17.70;97.30;;;18.08;92.32;101421.50;5190495;28;20409;-49
2023/06/27 01:29:44;;;;;;;1.35;0.98;;;17.70;97.50;;;18.06;92.32;101410.03;5217024;28;20045;-50
2023/06/27 01:32:23;;;;;;;1.33;1.00;;;17.70;97.60;;;18.04;92.47;101417.03;5220787;28;20045;-49
2023/06/27 01:35:04;;;;;;;1.48;0.90;;;17.60;97.70;;;18.04;92.85;101416.13;5219202;28;20147;-49
2023/06/27 01:37:39;;;;;;;;;;;17.70;98.00;;;18.05;93.44;101417.91;5207969;28;20064;-49
2023/06/27 01:40:16;;;;;;;1.95;1.00;;;17.60;98.20;;;18.06;93.36;101412.69;5213044;28;19932;-48
2023/06/27 01:42:53;;;;;;;1.17;0.70;;;17.60;98.30;;;18.07;93.50;101416.19;5223081;28;20045;-49
2023/06/27 01:45:26;;;;;;;2.28;0.93;;;17.70;98.50;;;18.08;93.00;101417.97;5190850;28;20055;-48
2023/06/27 01:48:00;;;;;;;1.73;1.02;;;17.70;98.50;;;18.09;92.22;101420.63;5204633;28;20041;-48
2023/06/27 01:50:32;;;;;;;2.08;0.98;;;17.70;98.30;;;18.10;91.29;101411.84;5201960;28;20049;-49
2023/06/27 01:53:05;;;;;;;2.63;1.15;;;17.70;98.00;;;18.10;90.72;101414.47;5195735;28;20045;-49
2023/06/27 01:55:38;;;;;;;1.70;1.00;;;17.70;97.90;;;18.12;90.47;101410.09;5191648;28;20446;-49
2023/06/27 01:58:11;;;;;;;1.88;1.17;;;17.70;97.80;;;18.13;91.08;101422.44;5215548;28;20146;-49
2023/06/27 02:00:44;;;;;;;1.45;1.02;;;17.70;98.00;;;18.12;91.51;101412.72;5209078;28;20548;-49
2023/06/27 02:03:16;;;;;;;1.42;0.90;;;17.70;98.30;;;18.09;92.17;101414.47;5214639;28;20096;-48
2023/06/27 02:05:48;;;;;;;1.50;0.90;;;17.70;98.50;;;18.08;92.76;101402.13;5200308;28;20037;-48
2023/06/27 02:08:21;;;;;;;1.08;0.90;;;17.70;98.80;;;18.07;92.48;101401.25;5202597;28;20145;-48
2023/06/27 02:10:55;;;;;;;3.17;1.50;;;17.70;98.70;;;18.07;91.59;101401.25;5207400;28;20041;-49
2023/06/27 02:13:27;;;;;;;2.05;1.20;;;17.70;98.60;;;18.06;91.26;101406.47;5200712;28;20519;-49
2023/06/27 02:16:00;;;;;;;1.50;1.27;;;17.70;98.50;;;18.07;90.74;101401.25;5192993;28;20517;-49
2023/06/27 02:18:32;;;;;;;2.55;1.30;;;17.70;98.40;;;18.11;90.64;101400.41;5205801;28;20526;-49
2023/06/27 02:21:05;;;;;;;1.65;1.10;;;17.70;98.30;;;18.13;90.61;101405.72;5209866;28;20045;-49
2023/06/27 02:23:38;;;;;;;1.08;0.98;;;17.70;98.30;;;18.12;90.87;101399.53;5214582;28;20140;-48
2023/06/27 02:26:11;;;;;;;1.70;1.00;;;17.80;98.40;;;18.11;91.27;101397.78;5201879;28;20061;-49
2023/06/27 02:28:44;;;;;;;1.40;1.02;;;17.70;98.60;;;18.09;91.70;101399.50;5215022;28;20064;-48
2023/06/27 02:31:18;;;;;;;2.00;0.85;;;17.70;98.80;;;18.10;91.13;101401.28;5217960;28;20053;-48
2023/06/27 02:33:50;;;;;;;1.75;1.30;;;17.70;98.70;;;18.07;90.83;101390.69;5195606;28;20103;-49
2023/06/27 02:36:26;;;;;;;2.83;1.20;;;17.70;98.60;;;18.07;90.56;101390.69;5212101;28;20600;-49
2023/06/27 02:39:02;;;;;;;2.13;1.25;;;17.70;98.50;;;18.05;90.55;101389.75;5205796;28;20052;-49
2023/06/27 02:41:36;;;;;;;2.13;1.15;;;17.70;98.50;;;18.04;90.53;101389.75;5213617;28;20508;-49
2023/06/27 02:44:09;;;;;;;1.05;0.90;;;17.70;98.60;;;18.02;90.43;101396.78;5201846;28;20099;-48
2023/06/27 02:46:41;;;;;;;2.97;1.20;;;17.60;98.60;;;18.00;90.70;101396.75;5209568;28;20041;-49
2023/06/27 02:49:16;;;;;;;1.85;1.10;;;17.60;98.60;;;17.97;91.26;101399.34;5201830;28;20395;-49
2023/06/27 02:51:49;;;;;;;1.63;1.10;;;17.60;98.80;;;17.93;92.12;101402.81;5221903;28;20059;-49
2023/06/27 02:54:22;;;;;;;2.08;1.05;;;17.50;99.10;;;17.86;92.65;101400.91;5203517;28;20562;-49
2023/06/27 02:56:56;;;;;;;1.58;0.90;;;17.50;99.40;;;17.80;92.94;101395.56;5202103;28;20342;-49
2023/06/27 02:59:28;;;;;;;2.30;1.30;;;17.40;99.50;;;17.77;92.86;101400.81;5214862;28;20453;-49
2023/06/27 03:02:02;;;;;;;2.15;1.20;;;17.40;99.60;;;17.77;93.41;101395.53;5209499;28;20059;-48
2023/06/27 03:04:35;;;;;;;3.03;1.20;;;17.40;99.80;;;17.75;93.20;101392.00;5218839;28;20040;-49
2023/06/27 03:07:08;;;;;;;1.88;1.20;;;17.40;99.90;;;17.73;93.21;101393.69;5218318;28;20061;-49
2023/06/27 03:09:42;;;;;;;2.28;1.40;;;17.40;99.90;;;17.70;93.35;101394.50;5226472;28;20045;-49
2023/06/27 03:12:17;;;;;;;2.55;1.30;;;17.40;99.90;;;17.70;93.23;101396.28;5213538;28;20118;-49
2023/06/27 03:14:50;;;;;;;2.10;1.20;;;17.40;99.90;;;17.71;93.29;101396.31;5194690;28;20464;-48
2023/06/27 03:17:22;;;;;;;1.63;1.08;;;17.40;99.90;;;17.73;93.29;101404.25;5208844;28;20045;-48
2023/06/27 03:19:55;;;;;;;1.52;1.10;;;17.40;99.90;;;17.75;93.54;101418.34;5211766;28;20045;-49
2023/06/27 03:22:27;;;;;;;1.98;1.33;;;17.40;99.90;;;17.77;93.90;101400.81;5217814;28;20092;-49
2023/06/27 03:25:00;;;;;;;3.15;1.15;;;17.40;99.90;;;17.78;94.14;101418.38;5214880;28;20059;-49
2023/06/27 03:27:34;;;;;;;4.10;1.30;;;17.40;99.90;;;17.77;94.25;101408.72;5216421;28;20064;-48
2023/06/27 03:30:08;;;;;;;2.08;1.30;;;17.40;99.90;;;17.77;94.67;101411.34;5205141;28;20140;-49
2023/06/27 03:32:41;;;;;;;2.45;1.20;;;17.40;99.90;;;17.73;95.12;101409.50;5188667;28;20058;-49
2023/06/27 03:35:13;;;;;;;2.83;1.40;;;17.40;99.90;;;17.73;95.31;101404.25;5221440;28;20053;-49
2023/06/27 03:37:46;;;;;;;2.47;1.08;;;17.40;99.90;;;17.74;96.24;101406.03;5210747;28;20055;-49
2023/06/27 03:40:18;;;;;;;2.88;1.27;;;17.40;99.90;;;17.75;96.15;101413.09;5224451;28;20049;-49
2023/06/27 03:42:52;;;;;;;2.33;1.10;;;17.40;99.90;;;17.77;95.51;101408.72;5211839;28;20049;-48
2023/06/27 03:45:24;;;;;;;2.13;1.25;;;17.40;99.90;;;17.78;95.38;101408.72;5238144;28;20064;-49
2023/06/27 03:47:57;;;;;;;3.10;1.20;;;17.40;99.90;;;17.78;95.53;101415.75;5196642;28;20569;-49
2023/06/27 03:50:29;;;;;;;1.38;1.10;;;17.40;99.90;;;17.77;96.11;101411.34;5215061;28;20144;-49
2023/06/27 03:53:02;;;;;;;1.70;1.30;;;17.40;99.90;;;17.77;95.47;101411.34;5196591;28;20050;-49
2023/06/27 03:55:34;;;;;;;1.92;1.40;;;17.40;99.90;;;17.78;94.91;101406.09;5221737;28;20046;-49
2023/06/27 03:58:09;;;;;;;1.50;1.27;;;17.40;99.90;;;17.80;94.79;101409.66;5195648;28;20080;-49
2023/06/27 04:00:43;;;;;;;2.00;1.20;;;17.40;99.90;;;17.83;94.58;101411.44;5200534;28;20122;-49
2023/06/27 04:03:17;;;;;;;2.13;1.30;;;17.50;99.90;;;17.83;94.29;101412.31;5208565;28;20135;-49
2023/06/27 04:05:50;;;;;;;1.73;1.30;;;17.50;99.90;;;17.85;94.60;101420.25;5219669;28;20499;-49
2023/06/27 04:08:22;;;;;;;2.05;1.40;;;17.50;99.90;;;17.86;94.59;101416.75;5222140;28;20060;-49
2023/06/27 04:10:55;;;;;;;2.55;1.30;;;17.50;99.90;;;17.85;94.63;101410.59;5225201;28;20052;-49
2023/06/27 04:13:29;;;;;;;2.15;1.30;;;17.50;99.90;;;17.87;94.97;101418.53;5206583;28;20059;-49
2023/06/27 04:16:01;;;;;;;1.58;1.20;;;17.50;99.90;;;17.88;94.44;101421.19;5204474;28;20037;-49
2023/06/27 04:18:34;;;;;;;2.15;1.55;;;17.50;99.90;;;17.88;94.58;101429.13;5216316;28;20056;-50
2023/06/27 04:21:09;;;;;;;2.33;1.33;;;17.50;99.90;;;17.90;95.18;101421.22;5224770;28;20061;-49
2023/06/27 04:23:42;;;;;;;3.30;1.20;;;17.50;99.90;;;17.93;95.76;101423.00;5208336;28;20052;-49
2023/06/27 04:26:17;;;;;;;1.77;1.10;;;17.60;99.90;;;17.95;96.53;101424.81;5208347;28;20159;-49
2023/06/27 04:28:51;;;;;;;2.55;1.10;;;17.60;99.90;;;17.97;97.05;101412.53;5220683;28;20072;-49
2023/06/27 04:31:26;;;;;;;1.38;1.27;;;17.60;99.90;;;18.02;96.72;101415.25;5221771;28;20541;-49
2023/06/27 04:34:00;;;;;;;2.42;1.40;;;17.60;99.90;;;18.08;96.17;101424.13;5207987;28;20072;-49
2023/06/27 04:36:34;;;;;;;3.35;1.20;;;17.70;99.90;;;18.13;94.40;101414.53;5214349;28;20037;-49
2023/06/27 04:39:06;;;;;;;1.90;1.10;;;17.70;99.90;;;18.22;93.26;101415.50;5209110;28;20218;-49
2023/06/27 04:41:38;;;;;;;3.90;1.40;;;17.80;99.90;;;18.26;92.04;101412.06;5211217;28;20056;-49
2023/06/27 04:44:13;;;;;;;3.33;1.30;;;17.90;99.90;;;18.32;91.03;101417.38;5203174;28;20049;-49
2023/06/27 04:46:45;;;;;;;3.10;1.30;;;17.90;99.90;;;18.35;90.69;101417.44;5203500;28;20076;-49
2023/06/27 04:49:21;;;;;;;2.15;1.20;;;17.90;99.90;;;18.37;90.57;101415.69;5224776;28;20147;-49
2023/06/27 04:51:53;;;;;;;4.50;1.42;;;18.00;99.90;;;18.39;90.18;101424.53;5211700;28;20153;-49
2023/06/27 04:54:26;;;;;;;3.08;1.10;;;18.00;99.90;;;18.43;90.72;101421.06;5221349;28;20054;-49
2023/06/27 04:56:58;;;;;;;3.58;1.25;;;18.00;99.90;;;18.45;91.05;101424.59;5209747;28;20069;-49
2023/06/27 04:59:35;;;;;;;2.83;1.48;;;18.10;99.90;;;18.47;91.41;101416.72;5203315;28;20056;-49
2023/06/27 05:02:08;;;;;;;2.28;1.02;;;18.10;99.90;;;18.46;91.96;101423.75;5204968;28;20044;-49
2023/06/27 05:04:41;;;;;;;1.55;1.45;;;18.10;99.90;;;18.43;93.13;101424.56;5208024;28;20057;-49
2023/06/27 05:07:13;;;;;;;2.22;1.13;;;18.10;99.90;;;18.41;93.88;101423.69;5215829;28;20051;-49
2023/06/27 05:09:45;;;;;;;2.33;1.30;;;18.00;99.90;;;18.39;94.57;101417.50;5207001;28;20045;-49
2023/06/27 05:12:18;;;;;;;3.90;1.50;;;18.00;99.90;;;18.37;95.03;101418.34;5211163;28;20060;-49
2023/06/27 05:14:51;;;;;;;3.58;1.60;;;18.00;99.90;;;18.36;95.66;101419.22;5195551;28;20449;-50
2023/06/27 05:17:24;;;;;;;2.92;1.30;;;18.00;99.90;;;18.38;95.16;101422.75;5208238;28;20045;-48
2023/06/27 05:19:56;;;;;;;2.25;1.60;;;18.00;99.90;;;18.47;95.00;101428.16;5192011;28;20049;-49
2023/06/27 05:22:29;;;;;;;4.90;1.45;;;18.10;99.90;;;18.64;94.58;101425.69;5205618;28;20053;-49
2023/06/27 05:25:01;;;;;;;4.10;1.52;;;18.20;99.90;;;18.91;92.99;101419.91;5208834;28;20053;-49
2023/06/27 05:27:33;;;;;;;2.85;1.63;;;18.40;99.90;;;19.32;90.63;101424.69;5205765;28;20050;-50
2023/06/27 05:30:09;;;;;;;6.05;1.80;;;18.70;99.90;;;19.83;87.29;101420.72;5209879;28;20324;-50
2023/06/27 05:32:41;;;;;;;4.22;1.85;;;19.20;99.50;;;20.19;84.90;101425.34;5210953;28;20049;-49
2023/06/27 05:35:14;;;;;;;6.82;1.80;;;19.50;98.70;;;20.48;83.08;101423.78;5205264;28;20056;-50
2023/06/27 05:37:46;;;;;;;5.55;2.00;;;19.80;97.90;;;20.81;82.85;101428.28;5218797;28;20046;-50
2023/06/27 05:40:19;;;;;;;2.33;1.30;;;20.10;97.80;;;21.24;81.69;101424.81;5211014;28;20071;-49
2023/06/27 05:42:51;;;;;;;2.47;1.33;;;20.50;97.40;;;21.68;78.33;101415.13;5215227;28;20053;-50
2023/06/27 05:45:25;;;;;;;3.42;1.60;;;20.90;96.10;;;22.05;74.29;101425.69;5222938;28;20144;-50
2023/06/27 05:47:57;;;;;;;4.07;1.45;;;21.20;94.40;;;22.35;73.48;101429.16;5217559;28;20038;-50
2023/06/27 05:50:29;;;;;;;3.45;1.60;;;21.50;93.90;;;22.57;72.43;101424.66;5191493;28;20055;-50
2023/06/27 05:53:02;;;;;;;3.30;1.42;;;21.80;93.20;;;22.74;71.74;101422.78;5212455;28;20418;-50
2023/06/27 05:55:34;;;;;;;3.72;1.50;;;22.00;92.80;;;22.90;70.69;101416.53;5185993;28;20099;-51
2023/06/27 05:58:06;;;;;;;3.67;1.65;;;22.20;92.10;;;23.04;70.01;101420.88;5216420;28;20430;-51
2023/06/27 06:00:40;;;;;;;2.88;1.67;;;22.30;91.60;;;23.19;69.90;101420.78;5204547;28;20052;-50
2023/06/27 06:03:14;;;;;;;5.05;1.35;;;22.40;91.40;;;23.42;68.54;101417.94;5222679;28;20048;-50
2023/06/27 06:05:46;;;;;;;5.35;1.70;;;22.60;91.00;;;23.68;68.35;101420.41;5186100;28;20041;-50
2023/06/27 06:08:19;;;;;;;4.82;1.35;;;22.80;90.70;;;23.86;67.68;101428.19;5197351;28;20046;-51
2023/06/27 06:10:53;;;;;;;4.70;1.40;;;23.00;90.40;;;23.98;66.65;101420.06;5186004;28;20045;-49
2023/06/27 06:13:25;;;;;;;4.43;1.30;;;23.20;89.20;;;24.16;66.47;101418.13;5221906;28;20413;-50
2023/06/27 06:15:59;;;;;;;3.97;1.52;;;23.30;89.10;;;24.34;66.01;101423.28;5203028;28;20187;-49
2023/06/27 06:18:33;;;;;;;3.92;1.58;;;23.50;88.40;;;24.48;64.93;101416.00;5233828;28;20544;-49
2023/06/27 06:21:05;;;;;;;4.88;1.80;;;23.60;86.90;;;24.56;65.07;101424.75;5205544;28;20091;-49
2023/06/27 06:23:41;;;;;;;4.35;1.50;;;23.70;86.80;;;24.73;64.93;101427.22;5220554;28;20053;-50
2023/06/27 06:26:13;;;;;;;9.35;2.03;;;23.90;86.40;;;24.94;64.40;101425.16;5201971;28;20053;-49
2023/06/27 06:28:45;;;;;;;5.20;1.55;;;24.10;86.00;;;25.07;63.79;101414.28;5236692;28;20506;-50
2023/06/27 06:31:24;;;;;;;5.30;1.65;;;24.20;85.00;;;25.18;63.14;101424.81;5222397;28;20409;-50
2023/06/27 06:33:57;;;;;;;4.88;1.63;;;24.30;84.20;;;25.15;63.79;101425.72;5214488;28;20049;-49
2023/06/27 06:36:29;;;;;;;6.70;1.60;;;24.40;84.20;;;25.16;63.91;101430.16;5201305;28;20134;-49
2023/06/27 06:39:01;;;;;;;4.30;1.60;;;24.40;84.40;;;25.33;63.41;101423.69;5208004;28;20052;-48
2023/06/27 06:41:34;;;;;;;5.97;1.55;;;24.50;83.80;;;25.24;62.73;101423.84;5220830;28;20052;-49
2023/06/27 06:44:08;;;;;;;4.40;1.52;;;24.40;82.90;;;25.07;63.91;101414.28;5202222;28;20045;-49
2023/06/27 06:46:42;;;;;;;5.90;1.73;;;24.30;83.80;;;25.17;64.33;101426.59;5194934;28;20058;-48
2023/06/27 06:49:14;;;;;;;4.20;1.50;;;24.40;84.10;;;25.03;63.45;101420.53;5212236;28;20049;-49
2023/06/27 06:51:47;;;;;;;6.30;1.60;;;24.30;83.00;;;24.77;63.67;101423.56;5209155;28;20042;-49
2023/06/27 06:54:20;;;;;;;5.13;1.70;;;24.10;83.10;;;24.75;64.34;101421.84;5200524;28;20122;-49
2023/06/27 06:56:52;;;;;;;5.07;1.90;;;24.00;83.50;;;24.98;64.89;101419.75;5200621;28;20513;-49
2023/06/27 06:59:27;;;;;;;4.47;1.85;;;24.10;84.30;;;25.39;63.25;101418.25;5201233;28;20044;-49
2023/06/27 07:02:01;;;;;;;6.32;1.60;;;24.40;83.20;;;25.52;63.03;101414.47;5205875;28;20047;-49
2023/06/27 07:04:33;;;;;;;4.93;1.80;;;24.60;82.50;;;25.75;62.77;101415.88;5202298;28;20054;-49
2023/06/27 07:07:06;;;;;;;6.25;1.52;;;24.80;82.50;;;25.87;61.76;101415.63;5213269;28;20041;-49
2023/06/27 07:09:39;;;;;;;7.00;1.90;;;24.90;81.50;;;25.84;61.05;101415.72;5205170;28;20046;-49
2023/06/27 07:12:11;;;;;;;6.90;1.63;;;24.90;80.30;;;26.01;60.80;101407.34;5204891;28;20052;-50
2023/06/27 07:14:44;;;;;;;6.90;1.63;;;25.10;80.30;;;26.30;60.53;101410.34;5201089;28;20430;-49
2023/06/27 07:17:17;;;;;;;6.93;1.80;;;25.30;79.80;;;26.69;60.05;101416.66;5199102;28;20045;-48
2023/06/27 07:19:53;;;;;;;5.88;1.77;;;25.70;79.60;;;26.77;59.73;101416.50;5222662;28;20160;-49
2023/06/27 07:22:26;;;;;;;6.32;1.70;;;25.80;78.90;;;26.77;59.49;101417.38;5221767;28;20049;-48
2023/06/27 07:24:58;;;;;;;6.75;1.70;;;25.80;78.50;;;26.83;59.05;101415.47;5201430;28;20050;-48
2023/06/27 07:27:31;;;;;;;7.55;2.03;;;25.90;77.90;;;26.95;58.69;101417.88;5217214;28;20041;-48
2023/06/27 07:30:03;;;;;;;5.57;1.77;;;26.00;77.50;;;26.97;58.17;101408.00;5193485;28;20521;-48
2023/06/27 07:32:37;;;;;;;8.43;1.77;;;26.00;76.70;;;27.03;58.33;101410.53;5201149;28;20095;-48
2023/06/27 07:35:10;;;;;;;5.40;1.40;;;26.10;76.80;;;27.02;58.74;101419.50;5201189;28;20060;-48
2023/06/27 07:37:45;;;;;;;6.25;1.27;;;26.10;76.90;;;26.93;58.93;101417.00;5200897;28;20060;-49
2023/06/27 07:40:18;;;;;;;4.45;1.42;;;26.00;76.90;;;26.86;59.54;101410.91;5200958;28;20049;-48
2023/06/27 07:42:50;;;;;;;5.25;1.50;;;25.90;77.20;;;26.88;59.50;101411.78;5201233;28;20053;-48
2023/06/27 07:45:22;;;;;;;3.60;1.35;;;25.90;77.40;;;26.89;59.21;101416.22;5205268;28;20438;-49
2023/06/27 07:47:56;;;;;;;4.07;1.15;;;25.90;77.10;;;26.88;59.29;101409.13;5205123;28;20529;-48
2023/06/27 07:50:29;;;;;;;5.80;1.60;;;25.90;77.10;;;26.96;59.08;101407.13;5210193;28;20049;-48
2023/06/27 07:53:01;;;;;;;4.80;1.80;;;25.90;77.00;;;26.82;58.32;101413.72;5205123;28;20045;-49
2023/06/27 07:55:34;;;;;;;6.95;1.55;;;25.80;75.90;;;26.66;59.02;101416.72;5204662;28;20541;-48
2023/06/27 07:58:06;;;;;;;5.03;1.60;;;25.70;76.50;;;26.56;58.76;101404.47;5204828;28;20534;-48
2023/06/27 08:00:39;;;;;;;7.55;1.50;;;25.60;76.30;;;26.53;59.75;101396.50;5206029;28;20049;-48
2023/06/27 08:03:13;;;;;;;4.38;1.80;;;25.50;76.90;;;26.55;58.76;101400.06;5211918;28;20085;-49
2023/06/27 08:05:45;;;;;;;4.88;1.20;;;25.50;77.00;;;26.67;59.21;101401.56;5214624;28;20057;-48
2023/06/27 08:08:17;;;;;;;3.90;1.65;;;25.50;76.70;;;26.98;59.45;101396.38;5224569;28;20399;-48
2023/06/27 08:10:50;;;;;;;3.67;1.40;;;25.60;77.50;;;27.36;58.73;101397.28;5208011;28;20052;-49
2023/06/27 08:13:22;;;;;;;4.32;1.27;;;25.90;77.20;;;27.77;57.08;101394.44;5213323;28;20057;-49
2023/06/27 08:15:54;;;;;;;4.65;1.38;;;26.10;76.10;;;28.26;56.63;101406.47;5211948;28;20498;-49
2023/06/27 08:18:28;;;;;;;5.70;1.15;;;26.40;76.00;;;28.84;55.28;101399.38;5214437;28;20045;-49
2023/06/27 08:21:00;;;;;;;5.05;1.27;;;26.70;75.50;;;29.41;54.04;101392.19;5217816;28;20057;-49
2023/06/27 08:23:33;;;;;;;3.90;1.17;;;27.10;74.30;;;29.82;52.46;101395.25;5204490;28;20061;-50
2023/06/27 08:26:05;;;;;;;2.08;1.10;;;27.40;72.90;;;30.24;50.92;101392.84;5224674;28;20418;-50
2023/06/27 08:28:37;;;;;;;3.30;1.30;;;27.60;71.70;;;30.82;50.96;101390.59;5204248;28;20061;-50
2023/06/27 08:31:11;;;;;;;5.75;1.58;;;27.90;72.00;;;31.00;49.82;101384.47;5203128;28;20053;-49
2023/06/27 08:33:48;;;;;;;3.92;1.30;;;28.10;70.80;;;31.00;48.66;101389.88;5220342;28;20494;-49
2023/06/27 08:36:21;;;;;;;4.03;1.30;;;28.20;69.30;;;31.45;47.83;101391.59;5210341;28;20136;-50
2023/06/27 08:38:53;;;;;;;7.10;1.40;;;28.40;68.60;;;32.43;46.02;101384.56;5206361;28;20053;-50
2023/06/27 08:41:26;;;;;;;4.38;1.25;;;28.80;67.40;;;32.80;45.02;101385.47;5224215;28;20056;-49
2023/06/27 08:43:58;;;;;;;3.08;1.00;;;29.20;65.90;;;32.75;44.48;101390.25;5220358;28;20053;-49
2023/06/27 08:46:33;;;;;;;3.05;1.17;;;29.30;64.60;;;32.53;44.20;101388.56;5211459;28;20049;-49
2023/06/27 08:49:11;;;;;;;5.05;1.50;;;29.30;63.90;;;32.51;44.67;101385.06;5207778;28;20041;-50
2023/06/27 08:51:50;;;;;;;3.85;1.10;;;29.40;63.90;;;33.49;43.84;101380.25;5215789;28;20049;-49
2023/06/27 08:54:32;;;;;;;6.07;1.40;;;30.00;63.60;;;33.17;43.26;101361.13;5223895;28;20048;-50
2023/06/27 08:57:06;;;;;;;4.22;1.38;;;30.20;62.00;;;32.01;44.95;101366.69;5223705;28;20555;-49
2023/06/27 08:59:46;;;;;;;4.55;1.08;;;29.70;62.20;;;30.96;46.58;101361.31;5206795;28;20064;-49
2023/06/27 09:02:19;;;;;;;3.83;1.33;;;29.10;63.00;;;29.87;47.96;101361.06;5202271;28;20049;-48
2023/06/27 09:04:54;;;;;;;3.30;1.20;;;28.40;63.40;;;28.96;49.17;101365.94;5201782;28;20507;-49
2023/06/27 09:07:26;;;;;;;3.22;1.25;;;27.70;64.00;;;28.19;50.91;101366.50;5197837;28;20064;-48
2023/06/27 09:09:59;;;;;;;3.92;1.27;;;27.10;65.00;;;27.68;52.38;101354.50;5195433;28;20056;-49
2023/06/27 09:12:34;;;;;;;5.30;1.60;;;26.60;66.30;;;27.23;53.10;101357.44;5198296;28;20052;-49
2023/06/27 09:15:07;;;;;;;4.88;1.20;;;26.20;66.80;;;26.87;53.74;101361.00;5213381;28;20045;-49
2023/06/27 09:17:43;;;;;;;2.38;1.10;;;25.90;67.50;;;26.67;54.47;101356.09;5189208;28;20040;-49
2023/06/27 09:20:19;;;;;;;6.18;1.25;;;25.70;68.10;;;26.64;54.85;101351.72;5212120;28;20049;-48
2023/06/27 09:22:52;;;;;;;3.70;1.00;;;25.60;68.70;;;26.66;54.74;101349.00;5206184;28;20106;-48
2023/06/27 09:25:25;;;;;;;5.25;1.30;;;25.50;68.70;;;26.52;54.93;101360.88;5219502;28;20037;-49
2023/06/27 09:28:16;;;;;;;5.63;1.25;;;25.50;68.70;;;26.32;55.08;101354.19;5198006;28;20122;-48
2023/06/27 09:30:56;;;;;;;3.85;0.90;;;25.40;68.80;;;26.24;54.68;101363.25;5204461;28;20053;-48
2023/06/27 09:33:28;;;;;;;3.47;1.20;;;25.30;68.30;;;26.19;54.72;101350.91;5217628;28;20049;-48
2023/06/27 09:36:02;;;;;;;3.55;1.30;;;25.30;68.40;;;26.40;55.36;101362.94;5213659;28;20060;-48
2023/06/27 09:38:34;;;;;;;5.57;1.13;;;25.40;69.20;;;26.64;54.74;101356.19;5214799;28;20046;-48
2023/06/27 09:41:08;;;;;;;4.13;1.00;;;25.50;69.00;;;26.84;53.13;101351.25;5222316;28;20466;-48
2023/06/27 09:43:46;;;;;;;3.50;1.13;;;25.70;67.50;;;26.84;53.03;101353.03;5214174;28;20049;-49
2023/06/27 09:46:22;;;;;;;4.15;1.08;;;25.80;67.20;;;26.66;53.25;101352.53;5208323;28;20471;-49
2023/06/27 09:48:54;;;;;;;3.00;1.10;;;25.70;67.10;;;26.35;53.42;101359.47;5192482;28;20057;-48
2023/06/27 09:51:30;;;;;;;2.50;0.85;;;25.50;67.00;;;26.03;53.88;101363.69;5200503;28;20422;-48
2023/06/27 09:54:05;;;;;;;1.70;0.90;;;25.30;67.10;;;25.76;53.89;101361.56;5217747;28;20048;-48
2023/06/27 09:56:38;;;;;;;3.72;1.13;;;25.10;66.90;;;25.58;53.27;101355.63;5205274;28;20045;-49
2023/06/27 09:59:11;;;;;;;2.88;1.10;;;24.90;66.50;;;25.48;53.38;101354.03;5207461;28;20053;-47
2023/06/27 10:01:43;;;;;;;2.88;1.08;;;24.80;66.60;;;25.43;53.21;101359.47;5218315;28;20079;-47
2023/06/27 10:04:16;;;;;;;2.08;0.98;;;24.70;66.40;;;25.38;53.42;101353.31;5198629;28;20471;-48
2023/06/27 10:06:49;;;;;;;1.30;0.80;;;24.70;66.50;;;;;;5204820;28;20049;-48
2023/06/27 10:09:22;;;;;;;1.92;0.80;;;24.70;67.00;;;25.46;54.20;101354.97;5201961;28;20273;-47
2023/06/27 10:11:58;;;;;;;5.32;1.27;;;24.70;67.50;;;25.46;54.27;101366.53;5217992;28;20045;-48
2023/06/27 10:14:30;;;;;;;2.97;1.10;;;24.70;67.50;;;25.54;53.28;101359.25;5212524;28;20060;-48
2023/06/27 10:17:04;;;;;;;1.50;0.90;;;24.80;66.80;;;25.57;52.80;101369.88;5221000;28;20505;-49
2023/06/27 10:19:38;;;;;;;4.15;1.08;;;24.80;66.00;;;25.50;52.62;101365.56;5196268;28;20091;-48
2023/06/27 10:22:19;;;;;;;5.00;1.20;;;24.70;66.00;;;25.45;52.23;101372.78;5203608;28;20053;-49
2023/06/27 10:24:57;;;;;;;4.72;1.25;;;24.70;65.50;;;25.32;51.65;101363.22;5202374;28;20045;-49
2023/06/27 10:27:34;;;;;;;3.15;1.10;;;24.60;64.70;;;25.22;52.12;101362.47;5207209;28;20104;-48
2023/06/27 10:30:24;;;;;;;2.38;1.10;;;24.50;65.30;;;25.17;53.03;101357.25;5201130;28;20045;-49
2023/06/27 10:33:10;;;;;;;3.88;1.08;;;24.50;66.10;;;25.10;53.16;101374.25;5205368;28;20041;-49
2023/06/27 10:35:51;;;;;;;2.25;0.80;;;24.40;66.10;;;25.10;53.64;101368.00;5205130;28;20549;-49
2023/06/27 10:38:35;;;;;;;3.65;1.15;;;24.40;66.60;;;25.26;54.66;101374.00;5221717;28;20067;-50
2023/06/27 10:41:33;;;;;;;3.90;1.30;;;24.50;67.80;;;25.48;54.20;101364.69;5201901;28;20099;-48